createdAt,value
2022-10-23T00:00:15.644Z,9.22
2022-10-23T00:02:51.358Z,9.09
2022-10-23T00:05:23.887Z,9.11
2022-10-23T00:07:58.788Z,9.11
2022-10-23T00:10:29.233Z,9.06
2022-10-23T00:12:59.079Z,9.03
2022-10-23T00:15:28.836Z,8.97
2022-10-23T00:17:58.578Z,8.93
2022-10-23T00:20:28.692Z,8.90
2022-10-23T00:22:58.549Z,8.87
2022-10-23T00:25:28.417Z,8.86
2022-10-23T00:28:01.300Z,8.81
2022-10-23T00:30:31.087Z,8.87
2022-10-23T00:33:01.042Z,8.94
2022-10-23T00:35:30.950Z,9.00
2022-10-23T00:38:00.855Z,9.07
2022-10-23T00:40:30.789Z,9.12
2022-10-23T00:43:01.255Z,9.18
2022-10-23T00:45:34.231Z,9.25
2022-10-23T00:48:04.900Z,9.31
2022-10-23T00:50:34.932Z,9.38
2022-10-23T00:53:11.769Z,9.45
2022-10-23T00:55:47.199Z,9.51
2022-10-23T00:58:21.036Z,9.55
2022-10-23T01:00:57.088Z,9.60
2022-10-23T01:03:29.722Z,9.61
2022-10-23T01:06:40.448Z,9.57
2022-10-23T01:09:39.518Z,9.54
2022-10-23T01:12:46.922Z,9.49
2022-10-23T01:15:38.445Z,9.42
2022-10-23T01:18:27.491Z,9.38
2022-10-23T01:21:22.318Z,9.33
2022-10-23T01:24:28.684Z,9.32
2022-10-23T01:27:26.883Z,9.30
2022-10-23T01:30:16.909Z,9.27
2022-10-23T01:33:15.057Z,9.25
2022-10-23T01:36:01.703Z,9.17
2022-10-23T01:39:15.168Z,9.16
2022-10-23T01:41:57.841Z,9.17
2022-10-23T01:44:47.468Z,9.19
2022-10-23T01:47:27.311Z,9.24
2022-10-23T01:50:02.167Z,9.27
2022-10-23T01:52:32.382Z,9.35
2022-10-23T01:55:02.778Z,9.40
2022-10-23T01:57:38.581Z,9.46
2022-10-23T02:00:15.867Z,9.48
2022-10-23T02:02:52.569Z,9.51
2022-10-23T02:05:26.750Z,9.53
2022-10-23T02:08:00.631Z,9.56
2022-10-23T02:11:00.645Z,9.58
2022-10-23T02:13:43.667Z,9.62
2022-10-23T02:16:36.221Z,9.61
2022-10-23T02:20:02.865Z,9.63
2022-10-23T02:22:55.671Z,9.64
2022-10-23T02:25:47.401Z,9.62
2022-10-23T02:28:30.674Z,9.62
2022-10-23T02:31:08.250Z,9.63
2022-10-23T02:33:38.176Z,9.64
2022-10-23T02:36:09.397Z,9.66
2022-10-23T02:38:44.219Z,9.68
2022-10-23T02:42:19.503Z,9.68
2022-10-23T02:45:04.366Z,9.70
2022-10-23T02:48:07.723Z,9.70
2022-10-23T02:51:07.679Z,9.73
2022-10-23T02:54:25.722Z,9.74
2022-10-23T02:57:19.620Z,9.74
2022-10-23T03:00:13.652Z,9.76
2022-10-23T03:03:00.765Z,9.77
2022-10-23T03:05:40.160Z,9.74
2022-10-23T03:08:13.782Z,9.70
2022-10-23T03:10:44.007Z,9.68
2022-10-23T03:13:13.902Z,9.67
2022-10-23T03:15:44.159Z,9.63
2022-10-23T03:18:13.999Z,9.55
2022-10-23T03:20:43.764Z,9.50
2022-10-23T03:23:14.153Z,9.47
2022-10-23T03:25:43.898Z,9.42
2022-10-23T03:28:13.756Z,9.40
2022-10-23T03:30:43.616Z,9.37
2022-10-23T03:33:13.463Z,9.33
2022-10-23T03:35:43.468Z,9.30
2022-10-23T03:38:13.196Z,9.25
2022-10-23T03:40:43.665Z,9.22
2022-10-23T03:43:14.132Z,9.17
2022-10-23T03:45:44.092Z,9.11
2022-10-23T03:48:14.712Z,9.06
2022-10-23T03:50:44.485Z,9.03
2022-10-23T03:53:14.229Z,8.99
2022-10-23T03:55:45.698Z,8.95
2022-10-23T03:58:15.504Z,8.92
2022-10-23T04:00:45.268Z,8.86
2022-10-23T04:03:15.186Z,8.79
2022-10-23T04:05:45.082Z,8.74
2022-10-23T04:08:19.191Z,8.72
2022-10-23T04:10:50.081Z,8.70
2022-10-23T04:13:19.932Z,8.68
2022-10-23T04:15:53.146Z,8.66
2022-10-23T04:18:22.943Z,8.64
2022-10-23T04:20:53.251Z,8.63
2022-10-23T04:23:23.093Z,8.59
2022-10-23T04:25:58.160Z,8.54
2022-10-23T04:28:28.938Z,8.52
2022-10-23T04:30:58.878Z,8.47
2022-10-23T04:33:28.878Z,8.46
2022-10-23T04:35:58.738Z,8.39
2022-10-23T04:38:28.559Z,8.35
2022-10-23T04:40:58.419Z,8.35
2022-10-23T04:43:28.285Z,8.34
2022-10-23T04:45:58.484Z,8.32
2022-10-23T04:48:29.195Z,8.35
2022-10-23T04:51:05.117Z,8.36
2022-10-23T04:53:35.172Z,8.34
2022-10-23T04:56:06.103Z,8.35
2022-10-23T04:58:35.929Z,8.29
2022-10-23T05:01:07.511Z,8.28
2022-10-23T05:03:39.347Z,8.28
2022-10-23T05:06:09.146Z,8.24
2022-10-23T05:08:38.927Z,8.21
2022-10-23T05:11:08.754Z,8.21
2022-10-23T05:13:38.580Z,8.23
2022-10-23T05:16:08.429Z,8.24
2022-10-23T05:18:48.967Z,8.24
2022-10-23T05:21:28.772Z,8.19
2022-10-23T05:26:52.929Z,8.19
2022-10-23T05:29:23.439Z,8.18
2022-10-23T05:32:03.363Z,8.21
2022-10-23T05:34:38.513Z,8.21
2022-10-23T05:37:15.447Z,8.14
2022-10-23T05:39:45.561Z,8.16
2022-10-23T05:42:18.972Z,8.15
2022-10-23T05:44:48.904Z,8.14
2022-10-23T05:47:18.752Z,8.13
2022-10-23T05:49:48.561Z,8.11
2022-10-23T05:52:20.302Z,8.09
2022-10-23T05:54:53.262Z,8.06
2022-10-23T05:57:23.105Z,8.04
2022-10-23T05:59:52.947Z,8.06
2022-10-23T06:02:23.001Z,8.08
2022-10-23T06:04:52.969Z,8.08
2022-10-23T06:07:32.338Z,8.09
2022-10-23T06:10:06.928Z,8.11
2022-10-23T06:12:36.794Z,8.12
2022-10-23T06:15:07.815Z,8.08
2022-10-23T06:17:37.592Z,8.10
2022-10-23T06:20:08.886Z,8.12
2022-10-23T06:22:38.637Z,8.15
2022-10-23T06:25:09.372Z,8.16
2022-10-23T06:27:39.200Z,8.16
2022-10-23T06:30:09.934Z,8.18
2022-10-23T06:32:39.737Z,8.21
2022-10-23T06:35:09.734Z,8.19
2022-10-23T06:37:39.627Z,8.16
2022-10-23T06:40:10.355Z,8.24
2022-10-23T06:42:40.320Z,8.33
2022-10-23T06:45:10.519Z,8.42
2022-10-23T06:47:40.472Z,8.53
2022-10-23T06:50:13.080Z,8.60
2022-10-23T06:52:47.264Z,8.69
2022-10-23T06:55:19.277Z,8.81
2022-10-23T06:57:49.553Z,8.94
2022-10-23T07:00:21.593Z,9.04
2022-10-23T07:02:53.136Z,9.20
2022-10-23T07:05:23.059Z,9.31
2022-10-23T07:07:52.821Z,9.37
2022-10-23T07:10:23.641Z,9.42
2022-10-23T07:12:54.539Z,9.53
2022-10-23T07:15:24.320Z,9.63
2022-10-23T07:17:54.438Z,9.73
2022-10-23T07:20:24.416Z,9.84
2022-10-23T07:22:56.974Z,9.95
2022-10-23T07:25:27.616Z,10.08
2022-10-23T07:27:57.481Z,10.18
2022-10-23T07:30:27.356Z,10.29
2022-10-23T07:32:57.207Z,10.35
2022-10-23T07:35:26.979Z,10.50
2022-10-23T07:37:59.827Z,10.63
2022-10-23T07:40:29.617Z,10.73
2022-10-23T07:42:59.407Z,10.79
2022-10-23T07:45:29.194Z,10.95
2022-10-23T07:47:58.965Z,11.05
2022-10-23T07:50:28.855Z,11.13
2022-10-23T07:52:59.115Z,11.23
2022-10-23T07:55:29.020Z,11.31
2022-10-23T07:57:58.839Z,11.40
2022-10-23T08:00:28.806Z,11.51
2022-10-23T08:02:58.615Z,11.56
2022-10-23T08:05:28.414Z,11.61
2022-10-23T08:07:58.182Z,11.70
2022-10-23T08:10:28.100Z,11.68
2022-10-23T08:12:57.936Z,11.74
2022-10-23T08:15:27.707Z,11.76
2022-10-23T08:17:57.530Z,11.85
2022-10-23T08:20:27.374Z,11.91
2022-10-23T08:22:57.166Z,11.91
2022-10-23T08:25:27.096Z,11.94
2022-10-23T08:27:56.882Z,12.01
2022-10-23T08:30:27.652Z,12.12
2022-10-23T08:32:57.520Z,12.25
2022-10-23T08:35:27.526Z,12.39
2022-10-23T08:37:57.412Z,12.63
2022-10-23T08:40:27.885Z,12.84
2022-10-23T08:43:34.478Z,13.04
2022-10-23T08:46:18.026Z,13.24
2022-10-23T08:49:15.493Z,13.27
2022-10-23T08:51:54.713Z,13.22
2022-10-23T08:55:23.479Z,13.31
2022-10-23T08:58:25.670Z,13.36
2022-10-23T09:00:55.733Z,13.37
2022-10-23T09:03:27.690Z,13.46
2022-10-23T09:06:48.872Z,13.53
2022-10-23T09:09:49.396Z,13.55
2022-10-23T09:12:25.888Z,13.54
2022-10-23T09:15:28.533Z,13.50
2022-10-23T09:18:16.381Z,13.44
2022-10-23T09:20:46.931Z,13.39
2022-10-23T09:23:22.043Z,13.37
2022-10-23T09:25:57.130Z,13.29
2022-10-23T09:28:36.449Z,13.37
2022-10-23T09:31:13.047Z,13.46
2022-10-23T09:34:00.968Z,13.63
2022-10-23T09:36:30.650Z,13.77
2022-10-23T09:39:01.707Z,13.96
2022-10-23T09:41:40.386Z,14.15
2022-10-23T09:44:52.684Z,14.39
2022-10-23T09:47:26.056Z,14.62
2022-10-23T09:49:57.429Z,14.80
2022-10-23T09:52:35.856Z,14.93
2022-10-23T09:55:25.626Z,15.17
2022-10-23T09:57:56.225Z,15.38
2022-10-23T10:00:28.070Z,15.55
2022-10-23T10:03:20.876Z,15.76
2022-10-23T10:06:04.776Z,16.00
2022-10-23T10:08:53.999Z,16.21
2022-10-23T10:11:51.677Z,16.42
2022-10-23T10:14:46.273Z,16.54
2022-10-23T10:18:00.094Z,16.75
2022-10-23T10:21:23.602Z,16.98
2022-10-23T10:24:44.846Z,17.09
2022-10-23T10:27:52.559Z,17.16
2022-10-23T10:30:25.482Z,17.11
2022-10-23T10:33:31.488Z,17.10
2022-10-23T10:37:10.317Z,17.24
2022-10-23T10:40:28.096Z,17.27
2022-10-23T10:43:41.998Z,17.29
2022-10-23T10:46:41.955Z,17.16
2022-10-23T10:49:53.187Z,17.16
2022-10-23T10:52:57.818Z,17.12
2022-10-23T10:55:41.013Z,17.00
2022-10-23T10:58:41.364Z,17.05
2022-10-23T11:01:28.912Z,16.87
2022-10-23T11:04:14.629Z,16.88
2022-10-23T11:06:52.756Z,16.94
2022-10-23T11:09:30.418Z,17.08
2022-10-23T11:12:00.296Z,17.11
2022-10-23T11:14:34.912Z,17.11
2022-10-23T11:17:24.375Z,17.13
2022-10-23T11:20:43.716Z,17.08
2022-10-23T11:24:03.441Z,17.12
2022-10-23T11:27:00.146Z,17.08
2022-10-23T11:30:25.718Z,17.12
2022-10-23T11:34:01.213Z,17.08
2022-10-23T11:36:50.933Z,16.99
2022-10-23T11:39:33.170Z,16.99
2022-10-23T11:42:07.005Z,16.93
2022-10-23T11:44:47.774Z,16.93
2022-10-23T11:47:42.769Z,16.96
2022-10-23T11:50:10.467Z,16.92
2022-10-23T11:53:12.652Z,16.92
2022-10-23T11:56:13.267Z,17.06
2022-10-23T11:58:56.467Z,17.11
2022-10-23T12:01:45.863Z,17.19
2022-10-23T12:04:12.827Z,17.35
2022-10-23T12:06:55.565Z,17.43
2022-10-23T12:09:43.390Z,17.55
2022-10-23T12:12:42.603Z,17.65
2022-10-23T12:15:14.603Z,17.57
2022-10-23T12:17:47.651Z,17.47
2022-10-23T12:20:24.970Z,17.41
2022-10-23T12:23:06.176Z,17.44
2022-10-23T12:25:54.868Z,17.41
2022-10-23T12:29:33.876Z,17.27
2022-10-23T12:32:43.930Z,17.18
2022-10-23T12:36:12.609Z,17.14
2022-10-23T12:38:49.883Z,17.07
2022-10-23T12:41:31.577Z,17.10
2022-10-23T12:44:12.943Z,17.17
2022-10-23T12:46:54.216Z,17.18
2022-10-23T12:49:26.366Z,17.24
2022-10-23T12:52:19.549Z,17.20
2022-10-23T12:54:50.920Z,17.28
2022-10-23T12:57:33.023Z,17.32
2022-10-23T13:00:16.232Z,17.35
2022-10-23T13:02:46.768Z,17.32
2022-10-23T13:05:20.937Z,17.33
2022-10-23T13:07:52.512Z,17.32
2022-10-23T13:10:25.897Z,17.37
2022-10-23T13:13:04.842Z,17.28
2022-10-23T13:15:45.908Z,17.25
2022-10-23T13:18:18.298Z,17.25
2022-10-23T13:20:54.070Z,17.30
2022-10-23T13:23:34.847Z,17.38
2022-10-23T13:26:24.023Z,17.44
2022-10-23T13:28:55.015Z,17.44
2022-10-23T13:31:33.776Z,17.49
2022-10-23T13:34:19.174Z,17.44
2022-10-23T13:37:27.868Z,17.52
2022-10-23T13:40:25.106Z,17.55
2022-10-23T13:42:59.207Z,17.56
2022-10-23T13:45:27.920Z,17.55
2022-10-23T13:47:57.647Z,17.48
2022-10-23T13:50:31.236Z,17.39
2022-10-23T13:53:00.285Z,17.39
2022-10-23T13:55:29.966Z,17.36
2022-10-23T13:57:59.582Z,17.30
2022-10-23T14:00:29.222Z,17.23
2022-10-23T14:02:59.108Z,17.23
2022-10-23T14:05:29.768Z,17.11
2022-10-23T14:07:59.625Z,17.04
2022-10-23T14:10:29.967Z,16.93
2022-10-23T14:12:59.699Z,16.81
2022-10-23T14:15:29.581Z,16.78
2022-10-23T14:18:00.220Z,16.75
2022-10-23T14:20:32.320Z,16.72
2022-10-23T14:23:02.107Z,16.57
2022-10-23T14:25:31.822Z,16.51
2022-10-23T14:28:01.849Z,16.45
2022-10-23T14:30:32.934Z,16.39
2022-10-23T14:33:01.709Z,16.39
2022-10-23T14:35:31.578Z,16.34
2022-10-23T14:38:01.167Z,16.35
2022-10-23T14:40:30.931Z,16.31
2022-10-23T14:43:00.679Z,16.27
2022-10-23T14:45:30.613Z,16.26
2022-10-23T14:48:03.131Z,16.20
2022-10-23T14:50:37.857Z,16.06
2022-10-23T14:53:07.030Z,16.04
2022-10-23T14:55:37.055Z,15.92
2022-10-23T14:58:07.206Z,15.90
2022-10-23T15:00:37.116Z,15.84
2022-10-23T15:03:06.782Z,15.82
2022-10-23T15:05:42.899Z,15.76
2022-10-23T15:08:13.028Z,15.68
2022-10-23T15:10:42.984Z,15.66
2022-10-23T15:13:13.227Z,15.55
2022-10-23T15:15:43.136Z,15.44
2022-10-23T15:18:13.113Z,15.40
2022-10-23T15:20:42.977Z,15.37
2022-10-23T15:23:12.807Z,15.34
2022-10-23T15:25:42.699Z,15.26
2022-10-23T15:28:12.471Z,15.22
2022-10-23T15:30:45.846Z,15.13
2022-10-23T15:33:19.183Z,15.05
2022-10-23T15:35:52.532Z,14.95
2022-10-23T15:38:22.524Z,14.81
2022-10-23T15:40:58.380Z,14.74
2022-10-23T15:43:27.202Z,14.65
2022-10-23T15:45:54.188Z,14.55
2022-10-23T15:48:23.961Z,14.44
2022-10-23T15:50:55.727Z,14.35
2022-10-23T15:53:37.628Z,14.23
2022-10-23T15:56:06.143Z,14.15
2022-10-23T15:58:36.463Z,14.10
2022-10-23T16:01:07.062Z,14.04
2022-10-23T16:03:39.221Z,13.97
2022-10-23T16:06:13.888Z,13.89
2022-10-23T16:08:46.459Z,13.85
2022-10-23T16:11:30.454Z,13.84
2022-10-23T16:13:59.631Z,13.81
2022-10-23T16:16:29.378Z,13.79
2022-10-23T16:19:03.648Z,13.74
2022-10-23T16:21:36.489Z,13.74
2022-10-23T16:24:08.691Z,13.72
2022-10-23T16:26:40.591Z,13.70
2022-10-23T16:29:09.967Z,13.71
2022-10-23T16:31:39.863Z,13.68
2022-10-23T16:34:11.354Z,13.69
2022-10-23T16:36:41.949Z,13.68
2022-10-23T16:39:15.506Z,13.68
2022-10-23T16:41:45.794Z,13.68
2022-10-23T16:44:15.636Z,13.70
2022-10-23T16:46:45.511Z,13.67
2022-10-23T16:49:15.277Z,13.75
2022-10-23T16:51:45.295Z,13.72
2022-10-23T16:54:15.265Z,13.69
2022-10-23T16:56:45.418Z,13.66
2022-10-23T16:59:15.502Z,13.62
2022-10-23T17:01:45.419Z,13.67
2022-10-23T17:04:15.360Z,13.68
2022-10-23T17:06:45.438Z,13.69
2022-10-23T17:09:15.271Z,13.68
2022-10-23T17:11:45.962Z,13.70
2022-10-23T17:14:21.139Z,13.67
2022-10-23T17:16:53.339Z,13.76
2022-10-23T17:19:43.641Z,13.81
2022-10-23T17:22:15.653Z,13.84
2022-10-23T17:24:47.661Z,13.83
2022-10-23T17:27:20.250Z,13.89
2022-10-23T17:29:48.802Z,13.87
2022-10-23T17:32:15.659Z,13.84
2022-10-23T17:34:46.616Z,13.82
2022-10-23T17:37:17.254Z,13.83
2022-10-23T17:39:46.386Z,13.83
2022-10-23T17:42:19.399Z,13.91
2022-10-23T17:44:46.588Z,13.87
2022-10-23T17:47:16.666Z,13.85
2022-10-23T17:49:46.509Z,13.89
2022-10-23T17:52:16.840Z,13.90
2022-10-23T17:54:46.589Z,13.88
2022-10-23T17:57:16.511Z,13.83
2022-10-23T17:59:46.209Z,13.78
2022-10-23T18:02:16.153Z,13.75
2022-10-23T18:04:45.959Z,13.73
2022-10-23T18:07:16.107Z,13.72
2022-10-23T18:09:46.215Z,13.68
2022-10-23T18:12:15.963Z,13.63
2022-10-23T18:14:45.734Z,13.58
2022-10-23T18:17:15.554Z,13.53
2022-10-23T18:19:45.467Z,13.53
2022-10-23T18:22:15.244Z,13.48
2022-10-23T18:24:44.995Z,13.38
2022-10-23T18:27:15.943Z,13.32
2022-10-23T18:29:44.913Z,13.29
2022-10-23T18:32:14.762Z,13.26
2022-10-23T18:34:44.419Z,13.19
2022-10-23T18:37:14.362Z,13.10
2022-10-23T18:39:44.313Z,13.03
2022-10-23T18:42:18.893Z,13.03
2022-10-23T18:44:50.024Z,13.04
2022-10-23T18:47:19.231Z,13.03
2022-10-23T18:49:49.148Z,13.01
2022-10-23T18:52:18.760Z,12.98
2022-10-23T18:54:48.588Z,12.93
2022-10-23T18:57:18.378Z,12.90
2022-10-23T18:59:48.483Z,12.90
2022-10-23T19:02:18.401Z,12.86
2022-10-23T19:04:48.181Z,12.80
2022-10-23T19:07:18.279Z,12.87
2022-10-23T19:09:48.584Z,12.80
2022-10-23T19:12:19.339Z,12.77
2022-10-23T19:14:49.119Z,12.76
2022-10-23T19:17:30.140Z,12.74
2022-10-23T19:20:13.608Z,12.71
2022-10-23T19:22:49.771Z,12.68
2022-10-23T19:25:29.770Z,12.64
2022-10-23T19:28:04.035Z,12.66
2022-10-23T19:30:32.778Z,12.61
2022-10-23T19:33:02.647Z,12.61
2022-10-23T19:35:32.337Z,12.65
2022-10-23T19:38:02.139Z,12.69
2022-10-23T19:40:31.926Z,12.68
2022-10-23T19:43:01.659Z,12.70
2022-10-23T19:48:21.205Z,12.56
2022-10-23T19:50:51.062Z,12.53
2022-10-23T19:53:20.901Z,12.54
2022-10-23T19:55:50.963Z,12.50
2022-10-23T19:58:20.738Z,12.46
2022-10-23T20:00:50.463Z,12.39
2022-10-23T20:03:20.320Z,12.39
2022-10-23T20:05:50.263Z,12.35
2022-10-23T20:08:20.040Z,12.34
2022-10-23T20:10:49.799Z,12.29
2022-10-23T20:13:20.161Z,12.22
2022-10-23T20:15:50.356Z,12.19
2022-10-23T20:18:20.182Z,12.18
2022-10-23T20:20:49.989Z,12.18
2022-10-23T20:23:20.488Z,12.18
2022-10-23T20:25:49.552Z,12.20
2022-10-23T20:28:20.808Z,12.17
2022-10-23T20:30:49.261Z,12.21
2022-10-23T20:33:19.208Z,12.19
2022-10-23T20:35:48.916Z,12.09
2022-10-23T20:38:18.985Z,12.10
2022-10-23T20:40:49.179Z,12.05
2022-10-23T20:43:18.964Z,11.98
2022-10-23T20:45:48.883Z,11.90
2022-10-23T20:48:18.718Z,11.81
2022-10-23T20:50:48.628Z,11.77
2022-10-23T20:53:18.541Z,11.73
2022-10-23T20:55:48.431Z,11.69
2022-10-23T20:58:18.301Z,11.65
2022-10-23T21:00:48.374Z,11.55
2022-10-23T21:03:17.913Z,11.47
2022-10-23T21:05:47.578Z,11.49
2022-10-23T21:08:17.430Z,11.46
2022-10-23T21:10:47.986Z,11.41
2022-10-23T21:13:17.878Z,11.38
2022-10-23T21:15:47.417Z,11.32
2022-10-23T21:18:26.437Z,11.30
2022-10-23T21:21:09.060Z,11.31
2022-10-23T21:23:39.339Z,11.34
2022-10-23T21:26:09.001Z,11.36
2022-10-23T21:28:40.012Z,11.41
2022-10-23T21:31:13.097Z,11.46
2022-10-23T21:33:46.393Z,11.55
2022-10-23T21:36:21.298Z,11.65
2022-10-23T21:38:58.595Z,11.72
2022-10-23T21:41:34.635Z,11.80
2022-10-23T21:44:06.338Z,11.83
2022-10-23T21:46:37.521Z,11.87
2022-10-23T21:49:07.180Z,11.85
2022-10-23T21:51:37.788Z,11.84
2022-10-23T21:54:14.964Z,11.85
2022-10-23T21:56:51.112Z,11.88
2022-10-23T21:59:29.007Z,11.85
2022-10-23T22:02:00.329Z,11.93
2022-10-23T22:04:30.192Z,11.93
2022-10-23T22:07:00.056Z,11.94
2022-10-23T22:09:31.284Z,11.98
2022-10-23T22:12:01.428Z,12.04
2022-10-23T22:14:31.388Z,12.07
2022-10-23T22:17:04.003Z,12.13
2022-10-23T22:19:31.309Z,12.17
2022-10-23T22:22:01.024Z,12.18
2022-10-23T22:24:30.822Z,12.24
2022-10-23T22:27:00.475Z,12.27
2022-10-23T22:29:30.993Z,12.28
2022-10-23T22:32:00.734Z,12.31
2022-10-23T22:34:51.997Z,12.24
2022-10-23T22:37:21.293Z,12.18
2022-10-23T22:39:53.127Z,12.14
2022-10-23T22:42:22.950Z,12.21
2022-10-23T22:44:52.705Z,12.20
2022-10-23T22:47:22.534Z,12.41
2022-10-23T22:49:52.345Z,12.46
2022-10-23T22:52:21.991Z,12.47
2022-10-23T22:54:51.741Z,12.37
2022-10-23T22:57:21.609Z,12.32
2022-10-23T22:59:51.382Z,12.31
2022-10-23T23:02:21.119Z,12.18
2022-10-23T23:04:50.904Z,12.14
2022-10-23T23:07:20.613Z,12.07
2022-10-23T23:09:50.549Z,12.05
2022-10-23T23:12:20.542Z,12.00
2022-10-23T23:14:50.231Z,12.00
2022-10-23T23:17:20.012Z,11.98
2022-10-23T23:19:49.852Z,11.95
2022-10-23T23:22:19.713Z,11.94
2022-10-23T23:24:49.291Z,11.94
2022-10-23T23:27:18.989Z,11.97
2022-10-23T23:29:48.811Z,12.00
2022-10-23T23:32:19.041Z,12.02
2022-10-23T23:34:48.736Z,11.99
2022-10-23T23:37:18.521Z,11.99
2022-10-23T23:39:48.282Z,11.95
2022-10-23T23:42:18.382Z,11.93
2022-10-23T23:44:55.975Z,11.88
2022-10-23T23:47:32.798Z,11.84
2022-10-23T23:50:05.414Z,11.83
2022-10-23T23:52:34.642Z,11.76
2022-10-23T23:55:04.857Z,11.74
2022-10-23T23:57:34.786Z,11.72
